Terminal Aerodrome Forecast
Issued by NWS

Home | Current Version | Previous Version | Text Only | Print | Product List | Glossary On
Versions: 1 2 3 4 5 6 7 8 9 10 11 12 13 14 15 16 17 18 19 20 21 22 23 24 25 26 27 28 29 30 31 32 33 34 35 36 37 38 39 40 41 42 43 44 45 46 47 48 49 50
000
FTUS43 KMKX 311758 AAA
TAFENW
TAF AMD
KENW 311758Z 3118/0118 VRB04KT P6SM SCT020
     FM312200 14008KT P6SM SCT025
     FM010100 18004KT 6SM HZ SCT250
     FM010600 19004KT 3SM BR SCT250
     FM010900 19003KT 1SM BR SCT250
      TEMPO 0109/0112 1/2SM FG SCT004
     FM011300 20006KT 4SM BR SCT250
     FM011500 21008KT P6SM SCT250=

USA.gov is the U.S. government's official web portal to all federal, state and local government web resources and services.